createdAt,value
2016-02-06T00:00:43.095Z,1010.38
2016-02-06T00:01:43.146Z,1010.34
2016-02-06T00:02:43.196Z,1010.37
2016-02-06T00:03:43.261Z,1010.35
2016-02-06T00:04:43.294Z,1010.29
2016-02-06T00:05:43.343Z,1010.3
2016-02-06T00:06:43.410Z,1010.33
2016-02-06T00:07:43.462Z,1010.29
2016-02-06T00:08:43.511Z,1010.3
2016-02-06T00:09:43.576Z,1010.28
2016-02-06T00:10:43.610Z,1010.29
2016-02-06T00:11:43.675Z,1010.29
2016-02-06T00:12:43.726Z,1010.28
2016-02-06T00:13:43.775Z,1010.29
2016-02-06T00:14:43.825Z,1010.26
2016-02-06T00:15:43.875Z,1010.25
2016-02-06T00:16:43.925Z,1010.23
2016-02-06T00:17:43.990Z,1010.2
2016-02-06T00:18:44.039Z,1010.16
2016-02-06T00:19:44.088Z,1010.18
2016-02-06T00:20:44.140Z,1010.15
2016-02-06T00:21:44.189Z,1010.11
2016-02-06T00:22:44.239Z,1010.09
2016-02-06T00:23:44.304Z,1010.07
2016-02-06T00:24:44.354Z,1010.08
2016-02-06T00:25:44.387Z,1010.02
2016-02-06T00:26:44.438Z,1010.05
2016-02-06T00:27:44.518Z,1010.03
2016-02-06T00:28:44.568Z,1009.97
2016-02-06T00:29:44.617Z,1009.94
2016-02-06T00:30:44.668Z,1009.9
2016-02-06T00:31:44.717Z,1009.87
2016-02-06T00:32:44.782Z,1009.92
2016-02-06T00:33:44.822Z,1009.93
2016-02-06T00:34:44.871Z,1009.88
2016-02-06T00:35:44.937Z,1009.87
2016-02-06T00:36:44.971Z,1009.87
2016-02-06T00:37:45.037Z,1009.88
2016-02-06T00:38:45.087Z,1009.82
2016-02-06T00:39:45.135Z,1009.77
2016-02-06T00:40:45.185Z,1009.8
2016-02-06T00:41:45.234Z,1009.77
2016-02-06T00:42:45.285Z,1009.74
2016-02-06T00:43:45.350Z,1009.75
2016-02-06T00:44:45.399Z,1009.72
2016-02-06T00:45:45.452Z,1009.73
2016-02-06T00:46:45.502Z,1009.74
2016-02-06T00:47:45.568Z,1009.73
2016-02-06T00:48:45.601Z,1009.71
2016-02-06T00:49:45.651Z,1009.71
2016-02-06T00:50:45.716Z,1009.7
2016-02-06T00:51:45.765Z,1009.67
2016-02-06T00:52:45.831Z,1009.7
2016-02-06T00:53:45.881Z,1009.67
2016-02-06T00:54:45.930Z,1009.61
2016-02-06T00:55:45.980Z,1009.64
2016-02-06T00:56:46.046Z,1009.56
2016-02-06T00:57:46.079Z,1009.54
2016-02-06T00:58:46.129Z,1009.57
2016-02-06T00:59:46.179Z,1009.56
2016-02-06T01:00:46.228Z,1009.55
2016-02-06T01:01:46.293Z,1009.56
2016-02-06T01:02:46.358Z,1009.56
2016-02-06T01:03:46.398Z,1009.6
2016-02-06T01:04:46.456Z,1009.62
2016-02-06T01:05:46.512Z,1009.6
2016-02-06T01:06:46.563Z,1009.57
2016-02-06T01:07:46.613Z,1009.5
2016-02-06T01:08:46.663Z,1009.48
2016-02-06T01:09:46.713Z,1009.46
2016-02-06T01:10:46.762Z,1009.5
2016-02-06T01:11:46.827Z,1009.46
2016-02-06T01:12:46.860Z,1009.44
2016-02-06T01:13:46.927Z,1009.46
2016-02-06T01:14:46.977Z,1009.48
2016-02-06T01:15:47.026Z,1009.44
2016-02-06T01:16:47.091Z,1009.47
2016-02-06T01:17:47.130Z,1009.48
2016-02-06T01:18:47.180Z,1009.49
2016-02-06T01:19:47.260Z,1009.47
2016-02-06T01:20:47.294Z,1009.48
2016-02-06T01:21:47.329Z,1009.52
2016-02-06T01:22:47.393Z,1009.49
2016-02-06T01:23:47.459Z,1009.46
2016-02-06T01:24:47.508Z,1009.48
2016-02-06T01:25:47.557Z,1009.44
2016-02-06T01:26:47.609Z,1009.46
2016-02-06T01:27:47.659Z,1009.47
2016-02-06T01:28:47.708Z,1009.44
2016-02-06T01:29:47.773Z,1009.45
2016-02-06T01:30:47.822Z,1009.44
2016-02-06T01:31:47.872Z,1009.41
2016-02-06T01:32:47.921Z,1009.38
2016-02-06T01:33:47.980Z,1009.38
2016-02-06T01:34:48.030Z,1009.25
2016-02-06T01:35:48.079Z,1009.29
2016-02-06T01:36:48.128Z,1009.27
2016-02-06T01:37:48.178Z,1009.22
2016-02-06T01:38:48.244Z,1009.24
2016-02-06T01:39:48.294Z,1009.25
2016-02-06T01:40:48.342Z,1009.22
2016-02-06T01:41:48.392Z,1009.26
2016-02-06T01:42:48.457Z,1009.23
2016-02-06T01:43:48.508Z,1009.12
2016-02-06T01:44:48.557Z,1009.1
2016-02-06T01:45:48.606Z,1009.16
2016-02-06T01:46:48.655Z,1009.12
2016-02-06T01:47:48.721Z,1009.1
2016-02-06T01:48:48.755Z,1009.1
2016-02-06T01:49:48.821Z,1009.1
2016-02-06T01:50:48.869Z,1009.07
2016-02-06T01:51:48.919Z,1009
2016-02-06T01:52:48.968Z,1009.05
2016-02-06T01:53:49.018Z,1009.01
2016-02-06T01:54:49.084Z,1009
2016-02-06T01:55:49.118Z,1008.97
2016-02-06T01:56:49.182Z,1008.93
2016-02-06T01:57:49.232Z,1008.96
2016-02-06T01:58:49.281Z,1008.9
2016-02-06T01:59:49.332Z,1008.91
2016-02-06T02:00:49.382Z,1008.89
2016-02-06T02:01:49.447Z,1008.83
2016-02-06T02:02:49.496Z,1008.81
2016-02-06T02:03:49.547Z,1008.76
2016-02-06T02:04:49.612Z,1008.8
2016-02-06T02:05:49.662Z,1008.78
2016-02-06T02:06:49.711Z,1008.73
2016-02-06T02:07:49.745Z,1008.71
2016-02-06T02:08:49.810Z,1008.71
2016-02-06T02:09:49.861Z,1008.74
2016-02-06T02:10:49.925Z,1008.7
2016-02-06T02:11:49.975Z,1008.72
2016-02-06T02:12:50.008Z,1008.74
2016-02-06T02:13:50.061Z,1008.71
2016-02-06T02:14:50.126Z,1008.67
2016-02-06T02:15:50.176Z,1008.72
2016-02-06T02:16:50.226Z,1008.71
2016-02-06T02:17:50.274Z,1008.72
2016-02-06T02:18:50.340Z,1008.69
2016-02-06T02:19:50.390Z,1008.68
2016-02-06T02:20:50.455Z,1008.7
2016-02-06T02:21:50.504Z,1008.68
2016-02-06T02:22:50.538Z,1008.69
2016-02-06T02:23:50.603Z,1008.64
2016-02-06T02:24:50.653Z,1008.65
2016-02-06T02:25:50.708Z,1008.64
2016-02-06T02:26:50.756Z,1008.63
2016-02-06T02:27:50.822Z,1008.58
2016-02-06T02:28:50.871Z,1008.61
2016-02-06T02:29:50.921Z,1008.57
2016-02-06T02:30:50.975Z,1008.52
2016-02-06T02:31:51.026Z,1008.5
2016-02-06T02:32:51.092Z,1008.54
2016-02-06T02:33:51.123Z,1008.52
2016-02-06T02:34:51.189Z,1008.53
2016-02-06T02:35:51.237Z,1008.44
2016-02-06T02:36:51.287Z,1008.48
2016-02-06T02:37:51.336Z,1008.5
2016-02-06T02:38:51.387Z,1008.42
2016-02-06T02:39:51.437Z,1008.46
2016-02-06T02:40:51.502Z,1008.48
2016-02-06T02:41:51.568Z,1008.45
2016-02-06T02:42:51.602Z,1008.42
2016-02-06T02:43:51.651Z,1008.39
2016-02-06T02:44:51.685Z,1008.42
2016-02-06T02:45:51.766Z,1008.38
2016-02-06T02:46:51.817Z,1008.32
2016-02-06T02:47:51.866Z,1008.35
2016-02-06T02:48:51.900Z,1008.31
2016-02-06T02:49:51.981Z,1008.24
2016-02-06T02:50:52.015Z,1008.21
2016-02-06T02:51:52.065Z,1008.19
2016-02-06T02:52:52.130Z,1008.2
2016-02-06T02:53:52.179Z,1008.21
2016-02-06T02:54:52.245Z,1008.21
2016-02-06T02:55:52.278Z,1008.13
2016-02-06T02:56:52.329Z,1008.15
2016-02-06T02:57:52.393Z,1008.09
2016-02-06T02:58:52.443Z,1008.03
2016-02-06T02:59:52.493Z,1008.04
2016-02-06T03:00:52.543Z,1008.04
2016-02-06T03:01:52.593Z,1008.05
2016-02-06T03:02:52.643Z,1007.98
2016-02-06T03:03:52.696Z,1008
2016-02-06T03:04:52.762Z,1007.98
2016-02-06T03:05:52.811Z,1007.99
2016-02-06T03:06:52.878Z,1008.02
2016-02-06T03:07:52.912Z,1008
2016-02-06T03:08:52.961Z,1007.98
2016-02-06T03:09:53.027Z,1007.95
2016-02-06T03:10:53.061Z,1007.97
2016-02-06T03:11:53.111Z,1007.97
2016-02-06T03:12:53.176Z,1007.96
2016-02-06T03:13:53.225Z,1007.92
2016-02-06T03:14:53.261Z,1007.94
2016-02-06T03:15:53.357Z,1007.95
2016-02-06T03:16:53.392Z,1007.99
2016-02-06T03:17:53.441Z,1007.91
2016-02-06T03:18:53.491Z,1007.9
2016-02-06T03:19:53.542Z,1007.89
2016-02-06T03:20:53.592Z,1007.86
2016-02-06T03:21:53.641Z,1007.87
2016-02-06T03:22:53.692Z,1007.85
2016-02-06T03:23:53.741Z,1007.88
2016-02-06T03:24:53.806Z,1007.82
2016-02-06T03:25:53.855Z,1007.83
2016-02-06T03:26:53.905Z,1007.79
2016-02-06T03:27:53.971Z,1007.79
2016-02-06T03:28:54.005Z,1007.79
2016-02-06T03:29:54.070Z,1007.76
2016-02-06T03:30:54.120Z,1007.75
2016-02-06T03:31:54.170Z,1007.76
2016-02-06T03:32:54.222Z,1007.74
2016-02-06T03:33:54.286Z,1007.74
2016-02-06T03:34:54.336Z,1007.77
2016-02-06T03:35:54.370Z,1007.74
2016-02-06T03:36:54.421Z,1007.74
2016-02-06T03:37:54.486Z,1007.75
2016-02-06T03:38:54.534Z,1007.8
2016-02-06T03:39:54.584Z,1007.75
2016-02-06T03:40:54.637Z,1007.75
2016-02-06T03:41:54.687Z,1007.78
2016-02-06T03:42:54.737Z,1007.72
2016-02-06T03:43:54.801Z,1007.71
2016-02-06T03:44:54.851Z,1007.71
2016-02-06T03:45:54.901Z,1007.73
2016-02-06T03:46:54.950Z,1007.72
2016-02-06T03:47:55.000Z,1007.69
2016-02-06T03:48:55.065Z,1007.66
2016-02-06T03:49:55.114Z,1007.64
2016-02-06T03:50:55.164Z,1007.64
2016-02-06T03:51:55.214Z,1007.64
2016-02-06T03:52:55.263Z,1007.65
2016-02-06T03:53:55.316Z,1007.6
2016-02-06T03:54:55.381Z,1007.61
2016-02-06T03:55:55.430Z,1007.57
2016-02-06T03:56:55.480Z,1007.54
2016-02-06T03:57:55.530Z,1007.52
2016-02-06T03:58:55.579Z,1007.49
2016-02-06T03:59:55.644Z,1007.5
2016-02-06T04:00:55.697Z,1007.51
2016-02-06T04:01:55.733Z,1007.48
2016-02-06T04:02:55.799Z,1007.5
2016-02-06T04:03:55.849Z,1007.51
2016-02-06T04:04:55.913Z,1007.48
2016-02-06T04:05:55.950Z,1007.46
2016-02-06T04:06:56.000Z,1007.43
2016-02-06T04:07:56.081Z,1007.4
2016-02-06T04:08:56.114Z,1007.37
2016-02-06T04:09:56.164Z,1007.34
2016-02-06T04:10:56.230Z,1007.31
2016-02-06T04:11:56.280Z,1007.31
2016-02-06T04:12:56.329Z,1007.26
2016-02-06T04:13:56.396Z,1007.29
2016-02-06T04:14:56.429Z,1007.27
2016-02-06T04:15:56.479Z,1007.26
2016-02-06T04:16:56.545Z,1007.27
2016-02-06T04:17:56.579Z,1007.19
2016-02-06T04:18:56.646Z,1007.18
2016-02-06T04:19:56.681Z,1007.14
2016-02-06T04:20:56.745Z,1007.1
2016-02-06T04:21:56.797Z,1007.08
2016-02-06T04:22:56.846Z,1007.01
2016-02-06T04:23:56.897Z,1006.98
2016-02-06T04:24:56.961Z,1006.98
2016-02-06T04:25:57.011Z,1006.97
2016-02-06T04:26:57.060Z,1006.97
2016-02-06T04:27:57.110Z,1006.99
2016-02-06T04:28:57.160Z,1006.96
2016-02-06T04:29:57.211Z,1006.92
2016-02-06T04:30:57.276Z,1006.92
2016-02-06T04:31:57.310Z,1006.93
2016-02-06T04:32:57.376Z,1006.86
2016-02-06T04:33:57.426Z,1006.92
2016-02-06T04:34:57.474Z,1006.84
2016-02-06T04:35:57.556Z,1006.86
2016-02-06T04:36:57.589Z,1006.82
2016-02-06T04:37:57.640Z,1006.82
2016-02-06T04:38:57.704Z,1006.83
2016-02-06T04:39:57.739Z,1006.81
2016-02-06T04:40:57.788Z,1006.85
2016-02-06T04:41:57.838Z,1006.79
2016-02-06T04:42:57.888Z,1006.84
2016-02-06T04:43:57.938Z,1006.8
2016-02-06T04:44:58.002Z,1006.77
2016-02-06T04:45:58.052Z,1006.77
2016-02-06T04:46:58.118Z,1006.76
2016-02-06T04:47:58.183Z,1006.78
2016-02-06T04:48:58.202Z,1006.74
2016-02-06T04:49:58.267Z,1006.73
2016-02-06T04:50:58.316Z,1006.73
2016-02-06T04:51:58.366Z,1006.69
2016-02-06T04:52:58.434Z,1006.69
2016-02-06T04:53:58.483Z,1006.66
2016-02-06T04:54:58.535Z,1006.64
2016-02-06T04:55:58.601Z,1006.57
2016-02-06T04:56:58.634Z,1006.56
2016-02-06T04:57:58.684Z,1006.57
2016-02-06T04:58:58.729Z,1006.59
2016-02-06T04:59:58.794Z,1006.55
2016-02-06T05:00:58.859Z,1006.64
2016-02-06T05:01:58.893Z,1006.64
2016-02-06T05:02:58.942Z,1006.63
2016-02-06T05:03:58.993Z,1006.64
2016-02-06T05:04:59.042Z,1006.6
2016-02-06T05:05:59.092Z,1006.59
2016-02-06T05:06:59.156Z,1006.6
2016-02-06T05:07:59.208Z,1006.55
2016-02-06T05:08:59.257Z,1006.52
2016-02-06T05:09:59.323Z,1006.51
2016-02-06T05:10:59.372Z,1006.52
2016-02-06T05:11:59.422Z,1006.49
2016-02-06T05:12:59.472Z,1006.47
2016-02-06T05:13:59.537Z,1006.43
2016-02-06T05:14:59.587Z,1006.41
2016-02-06T05:15:59.653Z,1006.35
2016-02-06T05:16:59.686Z,1006.33
2016-02-06T05:17:59.736Z,1006.31
2016-02-06T05:18:59.785Z,1006.33
2016-02-06T05:19:59.850Z,1006.32
2016-02-06T05:20:59.886Z,1006.34
2016-02-06T05:21:59.934Z,1006.32
2016-02-06T05:23:00.000Z,1006.36
2016-02-06T05:24:00.050Z,1006.37
2016-02-06T05:25:00.100Z,1006.28
2016-02-06T05:26:00.153Z,1006.28
2016-02-06T05:27:00.201Z,1006.24
2016-02-06T05:28:00.266Z,1006.27
2016-02-06T05:29:00.312Z,1006.31
2016-02-06T05:30:00.363Z,1006.26
2016-02-06T05:31:00.427Z,1006.3
2016-02-06T05:32:00.460Z,1006.32
2016-02-06T05:33:00.526Z,1006.36
2016-02-06T05:34:00.562Z,1006.38
2016-02-06T05:35:00.628Z,1006.41
2016-02-06T05:36:00.678Z,1006.4
2016-02-06T05:37:00.726Z,1006.37
2016-02-06T05:38:00.791Z,1006.37
2016-02-06T05:39:00.841Z,1006.34
2016-02-06T05:40:00.892Z,1006.26
2016-02-06T05:41:00.943Z,1006.31
2016-02-06T05:42:00.992Z,1006.3
2016-02-06T05:43:01.058Z,1006.34
2016-02-06T05:44:01.108Z,1006.31
2016-02-06T05:45:01.142Z,1006.34
2016-02-06T05:46:01.206Z,1006.27
2016-02-06T05:47:01.257Z,1006.25
2016-02-06T05:48:01.307Z,1006.23
2016-02-06T05:49:01.357Z,1006.26
2016-02-06T05:50:01.407Z,1006.26
2016-02-06T05:51:01.472Z,1006.27
2016-02-06T05:52:01.521Z,1006.23
2016-02-06T05:53:01.571Z,1006.18
2016-02-06T05:54:01.639Z,1006.18
2016-02-06T05:55:01.672Z,1006.14
2016-02-06T05:56:01.737Z,1006.15
2016-02-06T05:57:01.772Z,1006.12
2016-02-06T05:58:01.852Z,1006.12
2016-02-06T05:59:01.884Z,1006.11
2016-02-06T06:00:01.950Z,1006.14
2016-02-06T06:01:01.984Z,1006.17
2016-02-06T06:02:02.050Z,1006.16
2016-02-06T06:03:02.085Z,1006.14
2016-02-06T06:04:02.149Z,1006.18
2016-02-06T06:05:02.199Z,1006.18
2016-02-06T06:06:02.280Z,1006.17
2016-02-06T06:07:02.314Z,1006.17
2016-02-06T06:08:02.363Z,1006.22
2016-02-06T06:09:02.413Z,1006.22
2016-02-06T06:10:02.478Z,1006.22
2016-02-06T06:11:02.512Z,1006.21
2016-02-06T06:12:02.577Z,1006.22
2016-02-06T06:13:02.627Z,1006.23
2016-02-06T06:14:02.660Z,1006.24
2016-02-06T06:15:02.726Z,1006.2
2016-02-06T06:16:02.790Z,1006.2
2016-02-06T06:17:02.826Z,1006.19
2016-02-06T06:18:02.890Z,1006.18
2016-02-06T06:19:02.940Z,1006.17
2016-02-06T06:20:02.992Z,1006.19
2016-02-06T06:21:03.043Z,1006.18
2016-02-06T06:22:03.092Z,1006.16
2016-02-06T06:23:03.142Z,1006.2
2016-02-06T06:24:03.207Z,1006.13
2016-02-06T06:25:03.257Z,1006.16
2016-02-06T06:26:03.307Z,1006.16
2016-02-06T06:27:03.357Z,1006.13
2016-02-06T06:28:03.394Z,1006.12
2016-02-06T06:29:03.459Z,1006.1
2016-02-06T06:30:03.512Z,1006.16
2016-02-06T06:31:03.562Z,1006.14
2016-02-06T06:32:03.612Z,1006.09
2016-02-06T06:33:03.662Z,1006.06
2016-02-06T06:34:03.710Z,1006.09
2016-02-06T06:35:03.776Z,1006.01
2016-02-06T06:36:03.825Z,1006.03
2016-02-06T06:37:03.875Z,1006.03
2016-02-06T06:38:03.925Z,1006.04
2016-02-06T06:39:03.974Z,1006.02
2016-02-06T06:40:04.023Z,1005.99
2016-02-06T06:41:04.090Z,1005.99
2016-02-06T06:42:04.140Z,1005.98
2016-02-06T06:43:04.190Z,1005.98
2016-02-06T06:44:04.254Z,1006
2016-02-06T06:45:04.304Z,1006.01
2016-02-06T06:46:04.337Z,1006.01
2016-02-06T06:47:04.403Z,1006.03
2016-02-06T06:48:04.456Z,1006.01
2016-02-06T06:49:04.521Z,1006.02
2016-02-06T06:50:04.571Z,1006
2016-02-06T06:51:04.622Z,1006.01
2016-02-06T06:52:04.671Z,1006.04
2016-02-06T06:53:04.721Z,1005.99
2016-02-06T06:54:04.755Z,1005.94
2016-02-06T06:55:04.820Z,1005.92
2016-02-06T06:56:04.887Z,1005.94
2016-02-06T06:57:04.937Z,1005.92
2016-02-06T06:58:04.985Z,1005.94
2016-02-06T06:59:05.035Z,1005.95
2016-02-06T07:00:05.084Z,1005.93
2016-02-06T07:01:05.145Z,1005.92
2016-02-06T07:02:05.195Z,1005.91
2016-02-06T07:03:05.260Z,1005.87
2016-02-06T07:04:05.295Z,1005.86
2016-02-06T07:05:05.345Z,1005.84
2016-02-06T07:06:05.394Z,1005.86
2016-02-06T07:07:05.461Z,1005.82
2016-02-06T07:08:05.494Z,1005.83
2016-02-06T07:09:05.560Z,1005.86
2016-02-06T07:10:05.609Z,1005.88
2016-02-06T07:11:05.675Z,1005.91
2016-02-06T07:12:05.725Z,1005.97
2016-02-06T07:13:05.790Z,1006.02
2016-02-06T07:14:05.824Z,1006.05
2016-02-06T07:15:05.873Z,1006.06
2016-02-06T07:16:05.923Z,1006.02
2016-02-06T07:17:05.989Z,1006.04
2016-02-06T07:18:06.038Z,1006.08
2016-02-06T07:19:06.073Z,1006.06
2016-02-06T07:20:06.122Z,1006.11
2016-02-06T07:21:06.187Z,1006.07
2016-02-06T07:22:06.237Z,1006.08
2016-02-06T07:23:06.288Z,1006.07
2016-02-06T07:24:06.352Z,1006.08
2016-02-06T07:25:06.402Z,1006.07
2016-02-06T07:26:06.452Z,1006.11
2016-02-06T07:27:06.504Z,1006.05
2016-02-06T07:28:06.554Z,1006.04
2016-02-06T07:29:06.606Z,1006.05
2016-02-06T07:30:06.654Z,1006.05
2016-02-06T07:31:06.703Z,1006.02
2016-02-06T07:32:06.753Z,1005.96
2016-02-06T07:33:06.823Z,1005.97
2016-02-06T07:34:06.872Z,1005.96
2016-02-06T07:35:06.922Z,1005.92
2016-02-06T07:36:06.971Z,1005.94
2016-02-06T07:37:07.037Z,1005.87
2016-02-06T07:38:07.071Z,1005.83
2016-02-06T07:39:07.135Z,1005.81
2016-02-06T07:40:07.185Z,1005.8
2016-02-06T07:41:07.235Z,1005.82
2016-02-06T07:42:07.284Z,1005.83
2016-02-06T07:43:07.350Z,1005.83
2016-02-06T07:44:07.399Z,1005.84
2016-02-06T07:45:07.437Z,1005.84
2016-02-06T07:46:07.502Z,1005.82
2016-02-06T07:47:07.568Z,1005.76
2016-02-06T07:48:07.601Z,1005.7
2016-02-06T07:49:07.666Z,1005.69
2016-02-06T07:50:07.735Z,1005.68
2016-02-06T07:51:07.739Z,1005.65
2016-02-06T07:52:07.772Z,1005.61
2016-02-06T07:53:07.821Z,1005.56
2016-02-06T07:54:07.855Z,1005.48
2016-02-06T07:55:07.889Z,1005.4
2016-02-06T07:56:07.929Z,1005.38
2016-02-06T07:57:07.973Z,1005.37
2016-02-06T07:58:08.016Z,1005.39
2016-02-06T07:59:08.076Z,1005.35
2016-02-06T08:00:08.122Z,1005.38
2016-02-06T08:01:08.169Z,1005.43
2016-02-06T08:02:08.216Z,1005.43
2016-02-06T08:03:08.267Z,1005.45
2016-02-06T08:04:08.314Z,1005.44
2016-02-06T08:05:08.364Z,1005.41
2016-02-06T08:06:08.412Z,1005.38
2016-02-06T08:07:08.476Z,1005.3
2016-02-06T08:08:08.527Z,1005.22
2016-02-06T08:09:08.576Z,1005.2
2016-02-06T08:10:08.625Z,1005.18
2016-02-06T08:11:08.674Z,1005.23
2016-02-06T08:12:08.722Z,1005.22
2016-02-06T08:13:08.788Z,1005.17
2016-02-06T08:14:08.837Z,1005.2
2016-02-06T08:15:08.902Z,1005.23
2016-02-06T08:16:08.936Z,1005.21
2016-02-06T08:17:08.985Z,1005.26
2016-02-06T08:18:09.050Z,1005.27
2016-02-06T08:19:09.100Z,1005.22
2016-02-06T08:20:09.144Z,1005.24
2016-02-06T08:21:09.200Z,1005.25
2016-02-06T08:22:09.253Z,1005.28
2016-02-06T08:23:09.316Z,1005.28
2016-02-06T08:24:09.365Z,1005.25
2016-02-06T08:25:09.447Z,1005.25
2016-02-06T08:26:09.480Z,1005.2
2016-02-06T08:27:09.530Z,1005.17
2016-02-06T08:28:09.579Z,1005.13
2016-02-06T08:29:09.629Z,1005.16
2016-02-06T08:30:09.679Z,1005.15
2016-02-06T08:31:09.729Z,1005.14
2016-02-06T08:32:09.783Z,1005.11
2016-02-06T08:33:09.848Z,1005.12
2016-02-06T08:34:09.899Z,1005.12
2016-02-06T08:35:09.949Z,1005.09
2016-02-06T08:36:09.997Z,1005.09
2016-02-06T08:37:10.047Z,1005.06
2016-02-06T08:38:10.096Z,1005.07
2016-02-06T08:39:10.162Z,1005.1
2016-02-06T08:40:10.196Z,1005.09
2016-02-06T08:41:10.246Z,1005.09
2016-02-06T08:42:10.319Z,1005.1
2016-02-06T08:43:10.368Z,1005.16
2016-02-06T08:44:10.402Z,1005.16
2016-02-06T08:45:10.469Z,1005.2
2016-02-06T08:46:10.518Z,1005.17
2016-02-06T08:47:10.570Z,1005.16
2016-02-06T08:48:10.635Z,1005.13
2016-02-06T08:49:10.700Z,1005.16
2016-02-06T08:50:10.735Z,1005.17
2016-02-06T08:51:10.768Z,1005.14
2016-02-06T08:52:10.835Z,1005.08
2016-02-06T08:53:10.885Z,1005.11
2016-02-06T08:54:10.937Z,1005.06
2016-02-06T08:55:11.003Z,1005
2016-02-06T08:56:11.052Z,1004.99
2016-02-06T08:57:11.101Z,1004.99
2016-02-06T08:58:11.136Z,1004.97
2016-02-06T08:59:11.201Z,1004.99
2016-02-06T09:00:11.250Z,1004.98
2016-02-06T09:01:11.300Z,1004.94
2016-02-06T09:02:11.370Z,1004.91
2016-02-06T09:03:11.419Z,1004.94
2016-02-06T09:04:11.463Z,1004.88
2016-02-06T09:05:11.513Z,1004.93
2016-02-06T09:06:11.578Z,1004.84
2016-02-06T09:07:11.628Z,1004.81
2016-02-06T09:08:11.678Z,1004.81
2016-02-06T09:09:11.744Z,1004.78
2016-02-06T09:10:11.779Z,1004.77
2016-02-06T09:11:11.828Z,1004.76
2016-02-06T09:12:11.893Z,1004.77
2016-02-06T09:13:11.926Z,1004.85
2016-02-06T09:14:11.992Z,1004.84
2016-02-06T09:15:12.042Z,1004.83
2016-02-06T09:16:12.093Z,1004.83
2016-02-06T09:17:12.143Z,1004.84
2016-02-06T09:18:12.207Z,1004.88
2016-02-06T09:19:12.256Z,1004.83
2016-02-06T09:20:12.313Z,1004.87
2016-02-06T09:21:12.362Z,1004.79
2016-02-06T09:22:12.395Z,1004.83
2016-02-06T09:23:12.477Z,1004.8
2016-02-06T09:24:12.527Z,1004.82
2016-02-06T09:25:12.577Z,1004.8
2016-02-06T09:26:12.627Z,1004.83
2016-02-06T09:27:12.675Z,1004.79
2016-02-06T09:28:12.742Z,1004.71
2016-02-06T09:29:12.792Z,1004.73
2016-02-06T09:30:12.842Z,1004.76
2016-02-06T09:31:12.891Z,1004.78
2016-02-06T09:32:12.940Z,1004.74
2016-02-06T09:33:12.990Z,1004.72
2016-02-06T09:34:13.056Z,1004.68
2016-02-06T09:35:13.090Z,1004.69
2016-02-06T09:36:13.140Z,1004.69
2016-02-06T09:37:13.190Z,1004.72
2016-02-06T09:38:13.240Z,1004.73
2016-02-06T09:39:13.288Z,1004.83
2016-02-06T09:40:13.354Z,1004.77
2016-02-06T09:41:13.404Z,1004.78
2016-02-06T09:42:13.454Z,1004.77
2016-02-06T09:43:13.520Z,1004.83
2016-02-06T09:44:13.570Z,1004.83
2016-02-06T09:45:13.619Z,1004.83
2016-02-06T09:46:13.669Z,1004.76
2016-02-06T09:47:13.734Z,1004.78
2016-02-06T09:48:13.784Z,1004.73
2016-02-06T09:49:13.833Z,1004.76
2016-02-06T09:50:13.883Z,1004.75
2016-02-06T09:51:13.933Z,1004.84
2016-02-06T09:52:13.999Z,1004.79
2016-02-06T09:53:14.048Z,1004.78
2016-02-06T09:54:14.082Z,1004.8
2016-02-06T09:55:14.131Z,1004.77
2016-02-06T09:56:14.197Z,1004.79
2016-02-06T09:57:14.247Z,1004.72
2016-02-06T09:58:14.311Z,1004.74
2016-02-06T09:59:14.345Z,1004.77
2016-02-06T10:00:14.427Z,1004.74
2016-02-06T10:01:14.444Z,1004.81
2016-02-06T10:02:14.517Z,1004.79
2016-02-06T10:03:14.566Z,1004.82
2016-02-06T10:04:14.616Z,1004.8
2016-02-06T10:05:14.682Z,1004.77
2016-02-06T10:06:14.731Z,1004.74
2016-02-06T10:07:14.780Z,1004.75
2016-02-06T10:08:14.830Z,1004.7
2016-02-06T10:09:14.880Z,1004.71
2016-02-06T10:10:14.930Z,1004.73
2016-02-06T10:11:14.995Z,1004.69
2016-02-06T10:12:15.044Z,1004.71
2016-02-06T10:13:15.094Z,1004.72
2016-02-06T10:14:15.145Z,1004.7
2016-02-06T10:15:15.194Z,1004.72
2016-02-06T10:16:15.244Z,1004.7
2016-02-06T10:17:15.297Z,1004.67
2016-02-06T10:18:15.347Z,1004.69
2016-02-06T10:19:15.411Z,1004.71
2016-02-06T10:20:15.444Z,1004.69
2016-02-06T10:21:15.510Z,1004.71
2016-02-06T10:22:15.580Z,1004.73
2016-02-06T10:23:15.614Z,1004.77
2016-02-06T10:24:15.663Z,1004.77
2016-02-06T10:25:15.712Z,1004.71
2016-02-06T10:26:15.777Z,1004.74
2016-02-06T10:27:15.828Z,1004.68
2016-02-06T10:28:15.878Z,1004.68
2016-02-06T10:29:15.973Z,1004.67
2016-02-06T10:30:15.977Z,1004.64
2016-02-06T10:31:16.028Z,1004.67
2016-02-06T10:32:16.093Z,1004.66
2016-02-06T10:33:16.127Z,1004.66
2016-02-06T10:34:16.191Z,1004.62
2016-02-06T10:35:16.242Z,1004.6
2016-02-06T10:36:16.308Z,1004.6
2016-02-06T10:37:16.342Z,1004.6
2016-02-06T10:38:16.406Z,1004.64
2016-02-06T10:39:16.456Z,1004.63
2016-02-06T10:40:16.505Z,1004.61
2016-02-06T10:41:16.555Z,1004.6
2016-02-06T10:42:16.621Z,1004.58
2016-02-06T10:43:16.656Z,1004.5
2016-02-06T10:44:16.720Z,1004.53
2016-02-06T10:45:16.770Z,1004.48
2016-02-06T10:46:16.819Z,1004.48
2016-02-06T10:47:16.869Z,1004.44
2016-02-06T10:48:16.924Z,1004.44
2016-02-06T10:49:16.973Z,1004.43
2016-02-06T10:50:17.037Z,1004.4
2016-02-06T10:51:17.088Z,1004.37
2016-02-06T10:52:17.137Z,1004.39
2016-02-06T10:53:17.188Z,1004.35
2016-02-06T10:54:17.252Z,1004.32
2016-02-06T10:55:17.302Z,1004.34
2016-02-06T10:56:17.336Z,1004.29
2016-02-06T10:57:17.417Z,1004.31
2016-02-06T10:58:17.452Z,1004.27
2016-02-06T10:59:17.505Z,1004.28
2016-02-06T11:00:17.554Z,1004.25
2016-02-06T11:01:17.620Z,1004.24
2016-02-06T11:02:17.670Z,1004.24
2016-02-06T11:03:17.705Z,1004.19
2016-02-06T11:04:17.769Z,1004.18
2016-02-06T11:05:17.819Z,1004.23
2016-02-06T11:06:17.884Z,1004.16
2016-02-06T11:07:17.918Z,1004.18
2016-02-06T11:08:17.968Z,1004.12
2016-02-06T11:09:18.036Z,1004.09
2016-02-06T11:10:18.085Z,1004.07
2016-02-06T11:11:18.152Z,1004.03
2016-02-06T11:12:18.185Z,1004.04
2016-02-06T11:13:18.235Z,1004.07
2016-02-06T11:14:18.300Z,1004.08
2016-02-06T11:15:18.335Z,1003.98
2016-02-06T11:16:18.415Z,1003.96
2016-02-06T11:17:18.449Z,1003.95
2016-02-06T11:18:18.498Z,1003.93
2016-02-06T11:19:18.549Z,1003.91
2016-02-06T11:20:18.598Z,1003.87
2016-02-06T11:21:18.663Z,1003.86
2016-02-06T11:22:18.712Z,1003.81
2016-02-06T11:23:18.777Z,1003.76
2016-02-06T11:24:18.813Z,1003.81
2016-02-06T11:25:18.863Z,1003.74
2016-02-06T11:26:18.927Z,1003.76
2016-02-06T11:27:18.977Z,1003.73
2016-02-06T11:28:19.022Z,1003.76
2016-02-06T11:29:19.076Z,1003.72
2016-02-06T11:30:19.125Z,1003.74
2016-02-06T11:31:19.190Z,1003.69
2016-02-06T11:32:19.239Z,1003.69
2016-02-06T11:33:19.289Z,1003.71
2016-02-06T11:34:19.340Z,1003.63
2016-02-06T11:35:19.404Z,1003.68
2016-02-06T11:36:19.454Z,1003.66
2016-02-06T11:37:19.507Z,1003.69
2016-02-06T11:38:19.573Z,1003.64
2016-02-06T11:39:19.608Z,1003.61
2016-02-06T11:40:19.656Z,1003.59
2016-02-06T11:41:19.706Z,1003.6
2016-02-06T11:42:19.771Z,1003.56
2016-02-06T11:43:19.805Z,1003.53
2016-02-06T11:44:19.886Z,1003.51
2016-02-06T11:45:19.920Z,1003.48
2016-02-06T11:46:19.969Z,1003.51
2016-02-06T11:47:20.034Z,1003.52
2016-02-06T11:48:20.085Z,1003.51
2016-02-06T11:49:20.118Z,1003.49
2016-02-06T11:50:20.184Z,1003.54
2016-02-06T11:51:20.234Z,1003.55
2016-02-06T11:52:20.299Z,1003.58
2016-02-06T11:53:20.349Z,1003.53
2016-02-06T11:54:20.399Z,1003.5
2016-02-06T11:55:20.447Z,1003.48
2016-02-06T11:56:20.482Z,1003.51
2016-02-06T11:57:20.547Z,1003.48
2016-02-06T11:58:20.613Z,1003.49
2016-02-06T11:59:20.664Z,1003.49
2016-02-06T12:00:20.698Z,1003.45
2016-02-06T12:01:20.762Z,1003.44
2016-02-06T12:02:20.812Z,1003.43
2016-02-06T12:03:20.863Z,1003.48
2016-02-06T12:04:20.928Z,1003.49
2016-02-06T12:05:20.977Z,1003.46
2016-02-06T12:06:21.012Z,1003.46
2016-02-06T12:07:21.076Z,1003.45
2016-02-06T12:08:21.127Z,1003.43
2016-02-06T12:09:21.177Z,1003.42